Time;durP1;ratioP1;P1;durP2;ratioP2;P2;SDS_P1;SDS_P2;PMS_P1;PMS_P2;Temp;Humidity;BMP_temperature;BMP_pressure;BME280_temperature;BME280_humidity;BME280_pressure;Samples;Min_cycle;Max_cycle;Signal;HPM_P1;HPM_P2
2022/10/01 00:09:56;;;;;;;3.05;2.30;;;11.20;99.90;;;;;;20941312;28;20309;-40
2022/10/01 00:19:57;;;;;;;5.00;2.35;;;11.10;99.90;;;;;;20953099;28;20074;-40
2022/10/01 00:29:58;;;;;;;7.20;2.53;;;11.20;99.90;;;;;;20963394;28;20036;-39
2022/10/01 00:40:00;;;;;;;3.10;1.40;;;11.20;99.90;;;;;;20977740;28;20044;-39
2022/10/01 00:50:30;;;;;;;2.15;1.48;;;11.30;99.90;;;;;;20983550;28;20097;-39
2022/10/01 01:00:31;;;;;;;2.63;1.15;;;11.20;99.90;;;;;;20983809;28;21128;-40
2022/10/01 01:10:33;;;;;;;1.50;1.10;;;11.20;99.90;;;;;;20962890;28;20218;-39
2022/10/01 01:21:12;;;;;;;4.13;1.40;;;11.20;99.90;;;;;;20956486;28;20115;-40
2022/10/01 01:31:21;;;;;;;3.38;1.85;;;11.20;99.90;;;;;;20952394;28;20115;-40
2022/10/01 01:41:25;;;;;;;3.30;1.52;;;11.30;99.90;;;;;;20961168;28;20143;-40
2022/10/01 01:51:50;;;;;;;2.95;1.48;;;11.30;99.90;;;;;;20951942;28;20040;-40
2022/10/01 02:01:51;;;;;;;2.58;1.55;;;11.30;99.90;;;;;;20949629;28;20840;-40
2022/10/01 02:12:23;;;;;;;3.28;1.17;;;11.40;99.90;;;;;;20949857;28;20892;-40
2022/10/01 02:22:39;;;;;;;2.03;0.95;;;11.50;99.90;;;;;;20944155;28;20327;-40
2022/10/01 02:32:43;;;;;;;1.58;0.75;;;11.50;99.90;;;;;;20952228;28;21813;-39
2022/10/01 02:42:51;;;;;;;4.05;1.30;;;11.50;99.90;;;;;;20952071;28;20490;-41
2022/10/01 02:52:59;;;;;;;2.90;1.33;;;11.50;99.90;;;;;;20943455;28;20121;-41
2022/10/01 03:03:00;;;;;;;2.65;1.10;;;11.60;99.90;;;;;;20940187;28;20446;-40
2022/10/01 03:13:02;;;;;;;3.35;1.38;;;11.60;99.90;;;;;;20919814;28;20151;-39
2022/10/01 03:23:03;;;;;;;2.92;1.45;;;11.70;99.90;;;;;;20932074;28;20362;-40
2022/10/01 03:33:04;;;;;;;3.40;1.80;;;11.80;99.90;;;;;;20931889;28;20048;-39
2022/10/01 03:43:05;;;;;;;2.42;1.48;;;12.00;99.90;;;;;;20931165;28;20048;-39
2022/10/01 03:53:06;;;;;;;5.68;2.40;;;12.10;99.90;;;;;;20942159;28;20040;-39
2022/10/01 04:03:07;;;;;;;2.47;1.15;;;12.10;99.90;;;;;;20948740;28;20151;-39
2022/10/01 04:13:08;;;;;;;3.58;1.90;;;12.30;99.90;;;;;;20943220;28;20274;-39
2022/10/01 04:23:09;;;;;;;3.55;1.60;;;12.40;99.90;;;;;;20941795;28;20044;-39
2022/10/01 04:33:12;;;;;;;2.72;1.08;;;12.40;99.90;;;;;;20937652;28;20039;-39
2022/10/01 04:43:13;;;;;;;2.35;1.52;;;12.50;99.90;;;;;;20941753;28;20044;-39
2022/10/01 04:53:14;;;;;;;2.83;1.30;;;12.60;99.90;;;;;;20936637;28;20032;-39
2022/10/01 05:03:17;;;;;;;2.92;1.50;;;12.70;99.90;;;;;;20944306;28;20188;-39
2022/10/01 05:13:18;;;;;;;3.35;1.77;;;12.70;99.90;;;;;;20937615;28;20147;-39
2022/10/01 05:23:19;;;;;;;2.75;1.70;;;12.70;99.90;;;;;;20938202;28;20514;-39
2022/10/01 05:33:20;;;;;;;1.85;0.98;;;12.70;99.90;;;;;;20940513;28;20055;-39
2022/10/01 05:43:21;;;;;;;2.92;1.35;;;12.60;99.90;;;;;;20940563;28;20051;-39
2022/10/01 05:53:22;;;;;;;2.10;1.00;;;12.70;99.90;;;;;;20941114;28;20355;-39
2022/10/01 06:03:24;;;;;;;2.97;1.33;;;12.70;99.90;;;;;;20943339;28;20215;-39
2022/10/01 06:13:25;;;;;;;2.15;0.85;;;12.60;99.90;;;;;;20936567;28;20128;-39
2022/10/01 06:23:27;;;;;;;3.75;1.55;;;12.60;99.90;;;;;;20934794;28;20453;-39
2022/10/01 06:33:28;;;;;;;2.92;1.23;;;12.60;99.90;;;;;;20929425;28;20296;-39
2022/10/01 06:43:30;;;;;;;2.50;1.55;;;12.60;99.90;;;;;;20932994;28;20567;-39
2022/10/01 06:53:31;;;;;;;2.72;1.58;;;12.80;99.90;;;;;;20927245;28;20995;-38
2022/10/01 07:03:33;;;;;;;3.00;1.17;;;13.20;99.90;;;;;;20930655;28;20040;-39
2022/10/01 07:13:33;;;;;;;2.42;1.13;;;13.20;99.90;;;;;;20931524;28;20940;-39
2022/10/01 07:23:34;;;;;;;2.42;1.08;;;13.10;99.90;;;;;;20916494;28;20597;-39
2022/10/01 07:33:40;;;;;;;3.80;1.10;;;13.20;99.90;;;;;;20943939;28;20138;-39
2022/10/01 07:43:42;;;;;;;4.50;1.17;;;13.30;99.90;;;;;;20945426;28;20705;-39
2022/10/01 07:53:43;;;;;;;3.30;1.00;;;13.60;99.90;;;;;;20892565;28;20453;-39
2022/10/01 08:03:47;;;;;;;2.55;0.70;;;13.40;99.90;;;;;;20942106;28;22549;-39
2022/10/01 08:13:48;;;;;;;1.95;0.60;;;13.70;99.90;;;;;;20942165;28;20170;-39
2022/10/01 08:23:49;;;;;;;3.50;1.75;;;13.60;99.90;;;;;;20954488;28;20048;-40
2022/10/01 08:33:51;;;;;;;3.30;1.00;;;13.70;99.90;;;;;;20941323;28;20047;-39
2022/10/01 08:43:52;;;;;;;1.52;0.60;;;13.90;99.90;;;;;;20942522;28;20197;-39
2022/10/01 08:54:22;;;;;;;3.47;1.20;;;14.40;99.90;;;;;;20932642;28;20040;-39
2022/10/01 09:04:24;;;;;;;3.22;0.57;;;14.90;99.90;;;;;;20940459;28;20045;-39
2022/10/01 09:14:36;;;;;;;1.25;0.50;;;15.40;99.90;;;;;;20939101;28;20040;-39
2022/10/01 09:24:44;;;;;;;2.08;0.55;;;15.30;99.90;;;;;;20961715;28;20681;-39
2022/10/01 09:34:46;;;;;;;2.00;0.80;;;15.30;99.90;;;;;;20963708;28;20391;-39
2022/10/01 09:44:47;;;;;;;1.98;0.85;;;15.60;99.90;;;;;;20952672;28;20044;-39
2022/10/01 09:55:03;;;;;;;4.45;1.77;;;15.40;99.90;;;;;;20946617;28;20052;-39
2022/10/01 10:05:16;;;;;;;9.27;2.00;;;15.30;99.90;;;;;;20953902;28;20078;-39
2022/10/01 10:15:20;;;;;;;1.30;0.65;;;15.60;99.90;;;;;;20954879;28;20082;-39
2022/10/01 10:25:23;;;;;;;1.73;0.60;;;15.30;99.90;;;;;;20952428;28;20075;-39
2022/10/01 10:35:25;;;;;;;1.77;0.52;;;15.50;99.90;;;;;;20945899;28;20083;-40
2022/10/01 10:45:32;;;;;;;3.28;0.70;;;15.40;99.90;;;;;;20958266;28;20124;-39
2022/10/01 10:55:33;;;;;;;1.30;0.43;;;15.60;99.90;;;;;;20965590;28;20056;-39
2022/10/01 11:05:40;;;;;;;1.38;0.45;;;16.60;99.90;;;;;;20961267;28;20047;-39
2022/10/01 11:15:49;;;;;;;10.07;3.13;;;17.00;99.90;;;;;;20956078;28;20044;-40
2022/10/01 11:26:03;;;;;;;2.72;0.65;;;17.10;99.90;;;;;;20964032;28;20047;-40
2022/10/01 11:36:13;;;;;;;2.08;0.50;;;17.30;99.90;;;;;;20956811;28;20078;-40
2022/10/01 11:46:44;;;;;;;2.45;1.00;;;18.10;99.90;;;;;;20970406;28;20125;-37
2022/10/01 12:07:09;;;;;;;1.33;0.57;;;17.50;99.90;;;;;;20946513;28;20044;-39
2022/10/01 12:17:18;;;;;;;1.90;0.80;;;17.10;99.90;;;;;;20953826;28;20557;-39
2022/10/01 12:27:38;;;;;;;5.82;1.23;;;18.50;99.90;;;;;;20966097;28;20040;-37
2022/10/01 12:38:16;;;;;;;1.52;0.50;;;18.70;99.90;;;;;;20962673;28;20217;-39
2022/10/01 12:48:34;;;;;;;1.50;0.30;;;18.10;99.90;;;;;;20968249;28;20041;-39
2022/10/01 12:58:55;;;;;;;1.73;0.53;;;18.50;99.90;;;;;;20980264;28;20855;-39
2022/10/01 13:09:01;;;;;;;1.50;0.47;;;18.00;99.90;;;;;;21002120;28;20032;-40
2022/10/01 13:19:08;;;;;;;3.15;0.80;;;18.10;99.90;;;;;;21002349;28;20036;-37
2022/10/01 13:29:42;;;;;;;4.95;1.50;;;18.60;99.90;;;;;;20991272;28;20040;-37
2022/10/01 13:39:45;;;;;;;1.25;0.50;;;18.90;99.90;;;;;;21007566;28;20874;-37
2022/10/01 13:50:02;;;;;;;1.20;0.40;;;20.00;99.90;;;;;;21002862;28;20055;-37
2022/10/01 14:00:15;;;;;;;1.10;0.30;;;19.40;99.90;;;;;;20984986;28;20090;-37
2022/10/01 14:10:18;;;;;;;3.33;0.70;;;17.80;99.90;;;;;;20975086;28;20211;-38
2022/10/01 14:20:26;;;;;;;3.45;0.60;;;17.40;99.90;;;;;;20949739;28;20482;-39
2022/10/01 14:30:43;;;;;;;3.33;1.17;;;18.20;99.90;;;;;;20942539;28;20552;-37
2022/10/01 14:40:46;;;;;;;1.20;0.30;;;18.70;99.90;;;;;;20945332;28;21057;-37
2022/10/01 14:50:54;;;;;;;3.25;1.15;;;18.10;99.90;;;;;;20954669;28;20075;-40
2022/10/01 15:00:56;;;;;;;1.17;0.30;;;17.30;99.90;;;;;;20925609;28;20622;-40
2022/10/01 15:11:05;;;;;;;1.60;0.73;;;16.90;99.90;;;;;;20945794;28;20527;-40
2022/10/01 15:21:07;;;;;;;8.40;1.02;;;17.00;99.90;;;;;;20944527;28;20560;-39
2022/10/01 15:31:09;;;;;;;3.00;1.05;;;16.60;99.90;;;;;;20950481;28;20422;-40
2022/10/01 15:41:22;;;;;;;1.58;0.47;;;16.70;99.90;;;;;;20941836;28;20481;-39
2022/10/01 15:51:26;;;;;;;3.00;1.08;;;16.80;99.90;;;;;;20960827;28;20044;-39
2022/10/01 16:01:36;;;;;;;2.30;1.50;;;16.60;99.90;;;;;;20967123;28;20044;-39
2022/10/01 16:11:51;;;;;;;2.92;0.57;;;16.40;99.90;;;;;;20987190;28;21258;-39
2022/10/01 16:22:19;;;;;;;3.13;1.10;;;16.30;99.90;;;;;;20974382;28;20094;-39
2022/10/01 16:32:20;;;;;;;1.13;0.40;;;15.90;99.90;;;;;;20975424;28;20062;-39
2022/10/01 16:42:24;;;;;;;7.22;0.73;;;15.70;99.90;;;;;;20972406;28;20074;-39
2022/10/01 16:52:25;;;;;;;1.40;0.30;;;15.40;99.90;;;;;;20968765;28;20109;-39
2022/10/01 17:02:26;;;;;;;4.03;1.27;;;15.00;99.90;;;;;;20958937;28;20040;-39
2022/10/01 17:12:27;;;;;;;1.15;0.50;;;14.90;99.90;;;;;;20951118;28;20041;-39
2022/10/01 17:22:28;;;;;;;5.05;1.35;;;14.80;99.90;;;;;;20958094;28;20040;-39
2022/10/01 17:32:31;;;;;;;1.90;0.55;;;14.60;99.90;;;;;;20956662;28;20039;-39
2022/10/01 17:42:34;;;;;;;2.60;1.20;;;14.40;99.90;;;;;;20959269;28;21863;-39
2022/10/01 17:52:35;;;;;;;1.70;0.50;;;14.30;99.90;;;;;;20947150;28;20129;-39
2022/10/01 18:02:36;;;;;;;2.85;1.30;;;14.20;99.90;;;;;;20950276;28;20032;-39
2022/10/01 18:12:37;;;;;;;2.20;0.70;;;14.10;99.90;;;;;;20955908;28;20249;-39
2022/10/01 18:22:38;;;;;;;3.88;1.02;;;14.10;99.90;;;;;;20942905;28;20151;-39
2022/10/01 18:32:43;;;;;;;2.72;1.20;;;14.10;99.90;;;;;;20952761;28;20125;-39
2022/10/01 18:42:48;;;;;;;1.65;0.63;;;14.00;99.90;;;;;;20955751;28;20040;-39
2022/10/01 18:53:02;;;;;;;3.75;1.45;;;13.90;99.90;;;;;;20951492;28;20113;-39
2022/10/01 19:03:24;;;;;;;12.65;1.55;;;13.90;99.90;;;;;;20966037;28;20074;-39
2022/10/01 19:14:09;;;;;;;3.03;0.90;;;13.80;99.90;;;;;;20956128;28;20047;-39
2022/10/01 19:24:33;;;;;;;3.38;1.08;;;13.80;99.90;;;;;;20963407;28;20254;-39
2022/10/01 19:35:01;;;;;;;4.82;1.15;;;13.80;99.90;;;;;;20971872;28;20787;-39
2022/10/01 19:45:19;;;;;;;1.83;0.80;;;13.70;99.90;;;;;;20968959;28;20048;-39
2022/10/01 19:55:22;;;;;;;2.42;0.80;;;13.60;99.90;;;;;;20975751;28;20036;-39
2022/10/01 20:05:34;;;;;;;1.33;0.47;;;13.60;99.90;;;;;;20963979;28;20436;-39
2022/10/01 20:15:51;;;;;;;1.75;0.73;;;13.60;99.90;;;;;;20962610;28;20932;-39
2022/10/01 20:26:13;;;;;;;3.33;1.20;;;13.60;99.90;;;;;;20951908;28;20085;-39
2022/10/01 20:36:23;;;;;;;2.10;1.38;;;13.50;99.90;;;;;;20966886;28;20554;-39
2022/10/01 20:46:43;;;;;;;1.55;0.85;;;13.40;99.90;;;;;;20962659;28;20125;-39
2022/10/01 20:56:53;;;;;;;3.47;0.80;;;13.40;99.90;;;;;;20960186;28;20912;-39
2022/10/01 21:07:00;;;;;;;5.93;1.38;;;13.30;99.90;;;;;;20958042;28;20075;-39
2022/10/01 21:17:49;;;;;;;2.88;0.80;;;13.30;99.90;;;;;;20953371;28;20070;-39
2022/10/01 21:28:24;;;;;;;2.90;0.83;;;13.30;99.90;;;;;;20936269;28;20322;-39
2022/10/01 21:38:40;;;;;;;4.20;0.90;;;13.30;99.90;;;;;;20965431;28;20048;-39
2022/10/01 21:48:56;;;;;;;2.17;1.05;;;13.30;99.90;;;;;;20960912;28;21914;-39
2022/10/01 21:59:22;;;;;;;2.13;0.95;;;13.40;99.90;;;;;;20956020;28;20040;-38
2022/10/01 22:09:41;;;;;;;3.08;1.30;;;13.50;99.90;;;;;;20960224;28;20048;-41
2022/10/01 22:19:46;;;;;;;8.20;2.00;;;13.60;99.90;;;;;;20957535;28;20841;-38
2022/10/01 22:30:08;;;;;;;3.22;1.25;;;13.80;99.90;;;;;;20949606;28;20090;-39
2022/10/01 22:40:17;;;;;;;4.88;1.30;;;13.90;99.90;;;;;;20962344;28;20056;-39
2022/10/01 22:50:24;;;;;;;5.25;1.63;;;14.20;99.90;;;;;;20958665;28;20154;-39
2022/10/01 23:00:25;;;;;;;3.37;1.00;;;14.30;99.90;;;;;;20944074;28;20119;-39
2022/10/01 23:10:31;;;;;;;5.72;1.40;;;14.10;99.90;;;;;;20953316;28;20454;-39
2022/10/01 23:20:53;;;;;;;3.42;1.40;;;13.90;99.90;;;;;;20960535;28;20907;-39
2022/10/01 23:31:09;;;;;;;1.80;0.57;;;13.80;99.90;;;;;;20973046;28;20377;-39
2022/10/01 23:41:32;;;;;;;2.28;0.90;;;13.60;99.90;;;;;;20956717;28;20041;-39
2022/10/01 23:51:41;;;;;;;2.63;0.50;;;13.50;99.90;;;;;;20971727;28;20214;-39
